createdAt,value
2023-02-04T00:03:32.803Z,-146.77
2023-02-04T00:07:34.258Z,-146.77
2023-02-04T00:11:35.737Z,-146.77
2023-02-04T00:15:37.177Z,-146.77
2023-02-04T00:19:42.305Z,-146.77
2023-02-04T00:23:43.750Z,-146.77
2023-02-04T00:27:45.200Z,-146.77
2023-02-04T00:31:46.779Z,-146.77
2023-02-04T00:35:48.239Z,-146.77
2023-02-04T00:39:49.783Z,-146.77
2023-02-04T00:43:51.200Z,-146.77
2023-02-04T00:47:52.766Z,-146.77
2023-02-04T00:51:54.362Z,-146.77
2023-02-04T00:55:55.822Z,-146.77
2023-02-04T00:59:57.212Z,-146.77
2023-02-04T01:03:58.687Z,-146.77
2023-02-04T01:08:00.141Z,-146.77
2023-02-04T01:12:01.561Z,-146.77
2023-02-04T01:16:03.075Z,-146.77
2023-02-04T01:20:04.974Z,-146.77
2023-02-04T01:24:06.441Z,-146.77
2023-02-04T01:28:07.926Z,-146.77
2023-02-04T01:32:09.629Z,-146.77
2023-02-04T01:36:11.078Z,-146.77
2023-02-04T01:40:12.971Z,-146.77
2023-02-04T01:44:14.511Z,-146.77
2023-02-04T01:48:20.368Z,-146.77
2023-02-04T01:52:22.947Z,-146.77
2023-02-04T01:56:29.041Z,-146.77
2023-02-04T02:00:33.383Z,-146.77
2023-02-04T02:04:35.127Z,-146.77
2023-02-04T02:08:37.720Z,-146.77
2023-02-04T02:12:40.259Z,-146.77
2023-02-04T02:16:41.852Z,-146.77
2023-02-04T02:20:45.143Z,-146.77
2023-02-04T02:24:46.573Z,-146.77
2023-02-04T02:28:49.709Z,-146.77
2023-02-04T02:32:52.598Z,-146.77
2023-02-04T02:36:54.519Z,-146.77
2023-02-04T02:40:57.041Z,-146.77
2023-02-04T02:44:59.230Z,-146.77
2023-02-04T02:49:00.810Z,-146.77
2023-02-04T02:53:04.125Z,-146.77
2023-02-04T02:57:13.081Z,-146.77
2023-02-04T03:01:15.337Z,-146.77
2023-02-04T03:05:16.883Z,-146.77
2023-02-04T03:09:19.304Z,-146.77
2023-02-04T03:13:21.618Z,-146.77
2023-02-04T03:17:23.102Z,-146.77
2023-02-04T03:21:24.588Z,-146.77
2023-02-04T03:25:28.133Z,-146.77
2023-02-04T03:29:29.972Z,-146.77
2023-02-04T03:33:31.761Z,-146.77
2023-02-04T03:37:33.302Z,-146.77
2023-02-04T03:41:34.861Z,-146.77
2023-02-04T03:45:44.977Z,-146.77
2023-02-04T03:49:47.233Z,-146.77
2023-02-04T03:53:48.641Z,-146.77
2023-02-04T03:57:50.073Z,-146.77
2023-02-04T04:01:52.572Z,-146.77
2023-02-04T04:05:54.078Z,-146.77
2023-02-04T04:09:55.514Z,-146.77
2023-02-04T04:13:56.985Z,-146.77
2023-02-04T04:17:58.412Z,-146.77
2023-02-04T04:21:59.813Z,-146.77
2023-02-04T04:26:01.263Z,-146.77
2023-02-04T04:30:03.496Z,-146.77
2023-02-04T04:34:04.944Z,-146.77
2023-02-04T04:38:06.429Z,-146.77
2023-02-04T04:42:07.860Z,-146.77
2023-02-04T04:46:09.281Z,-146.77
2023-02-04T04:50:11.082Z,-146.77
2023-02-04T04:54:12.552Z,-146.77
2023-02-04T04:58:14.086Z,-146.77
2023-02-04T05:02:15.539Z,-146.77
2023-02-04T05:06:17.071Z,-146.77
2023-02-04T05:10:18.581Z,-146.77
2023-02-04T05:14:20.135Z,-146.77
2023-02-04T05:18:21.784Z,-146.77
2023-02-04T05:22:23.260Z,-146.77
2023-02-04T05:26:30.220Z,-146.77
2023-02-04T05:30:32.677Z,-146.77
2023-02-04T05:34:34.480Z,-146.77
2023-02-04T05:38:35.920Z,-146.77
2023-02-04T05:42:37.395Z,-146.77
2023-02-04T05:46:39.272Z,-146.77
2023-02-04T05:50:40.725Z,-146.77
2023-02-04T05:54:42.198Z,-146.77
2023-02-04T05:58:43.646Z,-146.77
2023-02-04T06:02:45.086Z,-146.77
2023-02-04T06:06:46.599Z,-146.77
2023-02-04T06:10:48.086Z,-146.77
2023-02-04T06:14:49.503Z,-146.77
2023-02-04T06:18:51.005Z,-146.77
2023-02-04T06:22:54.305Z,-146.77
2023-02-04T06:26:55.731Z,-146.77
2023-02-04T06:30:57.261Z,-146.77
2023-02-04T06:34:58.838Z,-146.77
2023-02-04T06:39:00.315Z,-146.77
2023-02-04T06:43:03.442Z,-146.77
2023-02-04T06:47:05.832Z,-146.77
2023-02-04T06:51:07.427Z,-146.77
2023-02-04T06:55:09.305Z,-146.77
2023-02-04T06:59:11.133Z,-146.77
2023-02-04T07:03:12.737Z,-146.77
2023-02-04T07:07:14.226Z,-146.77
2023-02-04T07:11:15.767Z,-146.77
2023-02-04T07:15:17.345Z,-146.77
2023-02-04T07:19:21.067Z,-146.77
2023-02-04T07:23:24.357Z,-146.77
2023-02-04T07:27:25.849Z,-146.77
2023-02-04T07:31:27.407Z,-146.77
2023-02-04T07:35:28.969Z,-146.77
2023-02-04T07:39:30.615Z,-146.77
2023-02-04T07:43:32.151Z,-146.77
2023-02-04T07:47:33.668Z,-146.77
2023-02-04T07:51:35.297Z,-146.77
2023-02-04T07:55:36.888Z,-146.77
2023-02-04T07:59:38.314Z,-146.77
2023-02-04T08:03:41.719Z,-146.77
2023-02-04T08:07:43.388Z,-146.77
2023-02-04T08:11:44.875Z,-146.77
2023-02-04T08:15:46.567Z,-146.77
2023-02-04T08:19:48.120Z,-146.77
2023-02-04T08:23:49.610Z,-146.77
2023-02-04T08:27:52.185Z,-146.77
2023-02-04T08:31:53.701Z,-146.77
2023-02-04T08:35:55.147Z,-146.77
2023-02-04T08:39:56.685Z,-146.77
2023-02-04T08:43:58.175Z,-146.77
2023-02-04T08:47:59.672Z,-146.77
2023-02-04T08:52:02.884Z,-146.77
2023-02-04T08:56:04.731Z,-146.77
2023-02-04T09:00:06.529Z,-146.77
2023-02-04T09:04:08.098Z,-146.77
2023-02-04T09:08:09.838Z,-146.77
2023-02-04T09:12:11.417Z,-146.77
2023-02-04T09:16:12.911Z,-146.77
2023-02-04T09:20:14.447Z,-146.77
2023-02-04T09:24:15.887Z,-146.77
2023-02-04T09:28:18.054Z,-146.77
2023-02-04T09:32:19.566Z,-146.77
2023-02-04T09:36:21.072Z,-146.77
2023-02-04T09:40:23.299Z,-146.77
2023-02-04T09:44:27.778Z,-146.77
2023-02-04T09:48:29.388Z,-146.77
2023-02-04T09:52:31.058Z,-146.77
2023-02-04T09:56:33.283Z,-146.77
2023-02-04T10:00:34.999Z,-146.77
2023-02-04T10:04:37.010Z,-146.77
2023-02-04T10:08:40.047Z,-146.77
2023-02-04T10:12:41.523Z,-146.77
2023-02-04T10:16:45.395Z,-146.77
2023-02-04T10:20:46.908Z,-146.77
2023-02-04T10:24:48.457Z,-146.77
2023-02-04T10:28:49.965Z,-146.77
2023-02-04T10:32:52.380Z,-146.77
2023-02-04T10:36:57.748Z,-146.77
2023-02-04T10:41:04.179Z,-146.77
2023-02-04T10:45:05.996Z,-146.77
2023-02-04T10:49:24.773Z,-146.77
2023-02-04T10:53:45.630Z,-146.77
2023-02-04T10:57:49.900Z,-146.77
2023-02-04T11:01:51.327Z,7.85
2023-02-04T11:05:56.561Z,7.77
2023-02-04T11:09:58.120Z,7.58
2023-02-04T11:14:03.132Z,7.23
2023-02-04T11:18:07.292Z,6.40
2023-02-04T11:22:24.809Z,5.72
2023-02-04T11:26:38.536Z,5.62
2023-02-04T11:30:40.072Z,5.10
2023-02-04T11:34:48.342Z,5.61
2023-02-04T11:38:50.300Z,5.41
2023-02-04T11:43:01.086Z,5.63
2023-02-04T11:47:08.491Z,5.68
2023-02-04T11:51:16.251Z,5.05
2023-02-04T11:55:19.439Z,5.15
2023-02-04T11:59:21.419Z,5.61
2023-02-04T12:03:26.449Z,5.22
2023-02-04T12:07:29.952Z,4.85
2023-02-04T12:11:31.589Z,4.57
2023-02-04T12:15:38.721Z,4.46
2023-02-04T12:19:40.201Z,4.08
2023-02-04T12:23:44.408Z,4.07
2023-02-04T12:27:46.015Z,4.37
2023-02-04T12:31:50.595Z,4.94
2023-02-04T12:35:52.671Z,5.62
2023-02-04T12:39:54.136Z,5.18
2023-02-04T12:43:55.680Z,5.28
2023-02-04T12:47:57.188Z,4.62
2023-02-04T12:52:02.160Z,4.57
2023-02-04T12:56:03.892Z,4.99
2023-02-04T13:00:06.200Z,5.57
2023-02-04T13:04:07.654Z,5.90
2023-02-04T13:08:09.099Z,5.40
2023-02-04T13:12:13.549Z,5.12
2023-02-04T13:16:15.100Z,4.85
2023-02-04T13:20:16.760Z,5.09
2023-02-04T13:24:18.235Z,5.34
2023-02-04T13:28:19.727Z,7.02
2023-02-04T13:32:21.313Z,7.32
2023-02-04T13:36:23.063Z,7.49
2023-02-04T13:40:24.522Z,8.77
2023-02-04T13:44:25.981Z,10.62
2023-02-04T13:48:27.419Z,11.51
2023-02-04T13:52:28.895Z,9.29
2023-02-04T13:56:32.862Z,10.24
2023-02-04T14:00:34.698Z,10.57
2023-02-04T14:04:37.031Z,10.39
2023-02-04T14:08:38.567Z,9.49
2023-02-04T14:12:41.806Z,10.01
2023-02-04T14:16:43.551Z,11.23
2023-02-04T14:20:45.280Z,9.38
2023-02-04T14:24:47.581Z,8.01
2023-02-04T14:28:49.198Z,6.20
2023-02-04T14:32:50.881Z,5.87
2023-02-04T14:36:52.357Z,5.63
2023-02-04T14:40:53.797Z,5.26
2023-02-04T14:44:55.260Z,4.94
2023-02-04T14:48:56.791Z,4.25
2023-02-04T14:52:58.385Z,4.22
2023-02-04T14:56:59.863Z,3.92
2023-02-04T15:01:01.642Z,4.20
2023-02-04T15:05:03.757Z,3.77
2023-02-04T15:09:05.255Z,4.63
2023-02-04T15:13:06.692Z,4.28
2023-02-04T15:17:08.293Z,4.61
2023-02-04T15:21:10.065Z,3.85
2023-02-04T15:25:12.991Z,3.84
2023-02-04T15:29:14.436Z,3.33
2023-02-04T15:33:16.776Z,3.16
2023-02-04T15:37:19.819Z,3.19
2023-02-04T15:41:22.903Z,3.06
2023-02-04T15:45:24.527Z,2.97
2023-02-04T15:49:27.475Z,2.85
2023-02-04T15:53:31.769Z,2.75
2023-02-04T15:57:33.251Z,2.73
2023-02-04T16:01:34.775Z,2.84
2023-02-04T16:05:36.350Z,2.76
2023-02-04T16:09:37.803Z,2.76
2023-02-04T16:13:39.271Z,2.70
2023-02-04T16:17:41.136Z,2.55
2023-02-04T16:21:45.268Z,2.52
2023-02-04T16:25:46.756Z,2.53
2023-02-04T16:29:48.669Z,2.27
2023-02-04T16:33:50.098Z,2.16
2023-02-04T16:37:51.521Z,2.06
2023-02-04T16:41:53.062Z,1.98
2023-02-04T16:45:54.898Z,1.86
2023-02-04T16:50:00.690Z,1.73
2023-02-04T16:54:02.280Z,1.57
2023-02-04T16:58:03.784Z,1.58
2023-02-04T17:02:05.473Z,1.44
2023-02-04T17:06:07.251Z,1.30
2023-02-04T17:10:09.119Z,1.31
2023-02-04T17:14:15.677Z,1.28
2023-02-04T17:18:17.249Z,1.25
2023-02-04T17:22:18.760Z,1.13
2023-02-04T17:26:20.459Z,1.11
2023-02-04T17:30:22.514Z,1.07
2023-02-04T17:34:24.250Z,1.11
2023-02-04T17:38:27.966Z,1.07
2023-02-04T17:42:30.322Z,1.02
2023-02-04T17:46:32.061Z,0.94
2023-02-04T17:54:42.833Z,0.84
2023-02-04T17:58:44.373Z,0.73
2023-02-04T18:02:47.853Z,0.69
2023-02-04T18:06:51.979Z,0.37
2023-02-04T18:10:55.468Z,0.52
2023-02-04T18:14:58.949Z,0.57
2023-02-04T18:19:28.207Z,0.45
2023-02-04T18:23:32.941Z,0.35
2023-02-04T18:27:34.598Z,0.29
2023-02-04T18:31:52.907Z,0.29
2023-02-04T18:36:00.966Z,0.07
2023-02-04T18:40:08.612Z,0.16
2023-02-04T18:44:38.070Z,-0.10
2023-02-04T18:49:02.801Z,-0.08
2023-02-04T18:53:10.461Z,-0.08
2023-02-04T18:57:45.803Z,-0.05
2023-02-04T19:01:48.708Z,-0.13
2023-02-04T19:05:50.859Z,-0.17
2023-02-04T19:09:52.507Z,-0.26
2023-02-04T19:13:57.086Z,-0.31
2023-02-04T19:18:07.358Z,-0.60
2023-02-04T19:22:36.350Z,-0.50
2023-02-04T19:26:55.065Z,-0.47
2023-02-04T19:31:03.645Z,-0.65
2023-02-04T19:35:18.840Z,-0.52
2023-02-04T19:39:39.441Z,-0.79
2023-02-04T19:43:41.060Z,-0.54
2023-02-04T19:47:44.003Z,-0.78
2023-02-04T19:51:50.689Z,-0.83
2023-02-04T19:55:54.240Z,-0.82
2023-02-04T19:59:56.716Z,-0.79
2023-02-04T20:04:00.288Z,-0.84
2023-02-04T20:08:24.344Z,-0.83
2023-02-04T20:12:29.313Z,-0.99
2023-02-04T20:16:37.190Z,-1.10
2023-02-04T20:20:40.418Z,-0.96
2023-02-04T20:24:43.162Z,-1.11
2023-02-04T20:28:45.788Z,-1.16
2023-02-04T20:32:53.438Z,-1.14
2023-02-04T20:36:55.521Z,-1.18
2023-02-04T20:40:57.100Z,-1.08
2023-02-04T20:45:34.313Z,-1.42
2023-02-04T20:49:40.774Z,-1.27
2023-02-04T20:54:01.009Z,-1.47
2023-02-04T20:58:09.219Z,-1.43
2023-02-04T21:02:18.436Z,-1.27
2023-02-04T21:06:29.132Z,-1.33
2023-02-04T21:10:30.607Z,-1.34
2023-02-04T21:14:32.056Z,-1.44
2023-02-04T21:18:36.698Z,-1.35
2023-02-04T21:22:38.248Z,-1.47
2023-02-04T21:26:40.159Z,-1.42
2023-02-04T21:30:42.044Z,-1.55
2023-02-04T21:34:43.549Z,-1.83
2023-02-04T21:38:47.220Z,-1.95
2023-02-04T21:42:49.542Z,-2.52
2023-02-04T21:46:50.986Z,-2.15
2023-02-04T21:50:52.439Z,-2.41
2023-02-04T21:54:53.856Z,-2.22
2023-02-04T21:58:56.350Z,-2.10
2023-02-04T22:02:58.006Z,-2.13
2023-02-04T22:06:59.590Z,-2.15
2023-02-04T22:11:01.081Z,-2.40
2023-02-04T22:15:04.291Z,-2.32
2023-02-04T22:19:06.049Z,-2.03
2023-02-04T22:23:07.593Z,-2.15
2023-02-04T22:27:09.097Z,-2.21
2023-02-04T22:31:12.374Z,-1.97
2023-02-04T22:35:14.815Z,-1.91
2023-02-04T22:39:16.397Z,-2.00
2023-02-04T22:43:17.890Z,-2.06
2023-02-04T22:47:19.400Z,-1.76
2023-02-04T22:51:21.100Z,-1.77
2023-02-04T22:55:22.657Z,-1.80
2023-02-04T22:59:24.577Z,-1.82
2023-02-04T23:03:26.065Z,-1.84
2023-02-04T23:07:27.700Z,-1.73
2023-02-04T23:11:29.417Z,-1.65
2023-02-04T23:15:30.945Z,-1.69
2023-02-04T23:19:32.520Z,-1.70
2023-02-04T23:23:34.083Z,-1.68
2023-02-04T23:27:35.591Z,-1.75
2023-02-04T23:31:37.110Z,-1.61
2023-02-04T23:35:38.576Z,-1.67
2023-02-04T23:39:40.039Z,-1.66
2023-02-04T23:43:41.523Z,-2.05
2023-02-04T23:47:42.964Z,-1.87
2023-02-04T23:51:44.577Z,-2.11
2023-02-04T23:55:46.211Z,-2.17
2023-02-04T23:59:47.704Z,-2.82
